createdAt,value
2024-05-09T00:00:59.896Z,13.70
2024-05-09T00:03:42.725Z,13.63
2024-05-09T00:06:11.103Z,13.66
2024-05-09T00:08:39.576Z,13.58
2024-05-09T00:11:08.009Z,13.56
2024-05-09T00:13:36.078Z,13.42
2024-05-09T00:16:04.553Z,13.47
2024-05-09T00:18:33.421Z,13.49
2024-05-09T00:21:04.912Z,13.55
2024-05-09T00:23:33.360Z,13.57
2024-05-09T00:26:01.500Z,13.63
2024-05-09T00:28:29.780Z,13.60
2024-05-09T00:30:57.907Z,13.61
2024-05-09T00:33:26.390Z,13.64
2024-05-09T00:35:54.906Z,13.65
2024-05-09T00:38:22.975Z,13.67
2024-05-09T00:40:51.236Z,13.61
2024-05-09T00:43:19.558Z,13.63
2024-05-09T00:45:48.644Z,13.70
2024-05-09T00:48:19.804Z,13.72
2024-05-09T00:50:50.264Z,13.74
2024-05-09T00:53:19.252Z,13.69
2024-05-09T00:55:47.897Z,13.67
2024-05-09T00:58:20.125Z,13.66
2024-05-09T01:00:50.388Z,13.65
2024-05-09T01:03:19.117Z,13.62
2024-05-09T01:05:47.750Z,13.54
2024-05-09T01:08:15.974Z,13.51
2024-05-09T01:10:46.162Z,13.55
2024-05-09T01:13:16.268Z,13.57
2024-05-09T01:15:44.424Z,13.49
2024-05-09T01:18:13.867Z,13.37
2024-05-09T01:20:44.662Z,13.31
2024-05-09T01:23:15.650Z,13.33
2024-05-09T01:25:46.407Z,13.33
2024-05-09T01:28:16.117Z,13.34
2024-05-09T01:30:44.488Z,13.36
2024-05-09T01:33:13.422Z,13.35
2024-05-09T01:35:42.886Z,13.29
2024-05-09T01:38:14.054Z,13.34
2024-05-09T01:40:43.686Z,13.36
2024-05-09T01:43:12.317Z,13.37
2024-05-09T01:45:41.495Z,13.36
2024-05-09T01:48:10.992Z,13.37
2024-05-09T01:50:42.429Z,13.37
2024-05-09T01:53:14.693Z,13.39
2024-05-09T01:55:44.348Z,13.40
2024-05-09T01:58:13.211Z,13.36
2024-05-09T02:00:43.099Z,13.19
2024-05-09T02:03:16.320Z,13.12
2024-05-09T02:05:50.041Z,13.14
2024-05-09T02:08:21.539Z,13.13
2024-05-09T02:10:50.788Z,13.14
2024-05-09T02:13:19.422Z,13.19
2024-05-09T02:15:47.420Z,13.15
2024-05-09T02:18:15.641Z,13.18
2024-05-09T02:20:44.317Z,12.99
2024-05-09T02:23:13.782Z,13.05
2024-05-09T02:25:42.262Z,13.04
2024-05-09T02:28:10.472Z,12.92
2024-05-09T02:30:41.297Z,12.72
2024-05-09T02:33:12.665Z,12.73
2024-05-09T02:35:44.094Z,12.74
2024-05-09T02:38:13.561Z,12.75
2024-05-09T02:40:42.160Z,12.80
2024-05-09T02:43:12.907Z,12.83
2024-05-09T02:45:41.725Z,12.87
2024-05-09T02:48:12.451Z,12.97
2024-05-09T02:50:42.074Z,13.00
2024-05-09T02:53:14.444Z,12.85
2024-05-09T02:55:43.544Z,12.72
2024-05-09T02:58:12.393Z,12.66
2024-05-09T03:00:42.415Z,12.64
2024-05-09T03:03:14.283Z,12.72
2024-05-09T03:05:46.492Z,12.71
2024-05-09T03:08:15.377Z,12.81
2024-05-09T03:10:43.620Z,12.72
2024-05-09T03:13:15.391Z,12.70
2024-05-09T03:15:45.171Z,12.82
2024-05-09T03:18:13.920Z,12.89
2024-05-09T03:20:44.001Z,12.91
2024-05-09T03:23:12.638Z,12.83
2024-05-09T03:25:41.013Z,12.89
2024-05-09T03:28:09.202Z,12.85
2024-05-09T03:30:41.908Z,12.89
2024-05-09T03:33:18.696Z,12.97
2024-05-09T03:35:49.103Z,12.99
2024-05-09T03:38:18.210Z,12.87
2024-05-09T03:40:50.697Z,12.85
2024-05-09T03:43:20.149Z,12.70
2024-05-09T03:45:50.394Z,12.60
2024-05-09T03:48:18.727Z,12.62
2024-05-09T03:50:47.247Z,12.74
2024-05-09T03:53:15.542Z,12.84
2024-05-09T03:55:44.052Z,12.92
2024-05-09T03:58:14.262Z,13.01
2024-05-09T04:00:43.067Z,13.04
2024-05-09T04:03:12.790Z,13.16
2024-05-09T04:05:43.774Z,13.19
2024-05-09T04:08:15.812Z,13.21
2024-05-09T04:10:44.404Z,13.24
2024-05-09T04:13:12.786Z,13.19
2024-05-09T04:15:40.851Z,13.28
2024-05-09T04:18:09.226Z,13.27
2024-05-09T04:20:40.131Z,13.39
2024-05-09T04:23:14.570Z,13.30
2024-05-09T04:25:45.080Z,13.30
2024-05-09T04:28:14.234Z,13.36
2024-05-09T04:30:43.194Z,13.47
2024-05-09T04:33:13.518Z,13.47
2024-05-09T04:35:43.777Z,13.50
2024-05-09T04:38:14.259Z,13.60
2024-05-09T04:40:43.447Z,13.63
2024-05-09T04:43:17.261Z,13.63
2024-05-09T04:45:46.412Z,13.74
2024-05-09T04:48:16.387Z,13.80
2024-05-09T04:50:45.037Z,13.88
2024-05-09T04:53:16.770Z,13.88
2024-05-09T04:55:45.649Z,13.88
2024-05-09T04:58:13.895Z,13.88
2024-05-09T05:00:44.023Z,13.91
2024-05-09T05:03:14.806Z,13.89
2024-05-09T05:05:46.554Z,13.96
2024-05-09T05:08:17.296Z,14.03
2024-05-09T05:10:48.647Z,13.92
2024-05-09T05:13:21.668Z,13.84
2024-05-09T05:15:55.423Z,13.93
2024-05-09T05:18:24.954Z,13.85
2024-05-09T05:20:54.897Z,13.94
2024-05-09T05:23:31.878Z,13.96
2024-05-09T05:26:00.454Z,14.10
2024-05-09T05:28:28.670Z,14.18
2024-05-09T05:30:56.858Z,14.27
2024-05-09T05:33:25.234Z,14.38
2024-05-09T05:35:53.656Z,14.42
2024-05-09T05:38:25.049Z,14.38
2024-05-09T05:40:56.069Z,14.42
2024-05-09T05:43:24.542Z,14.35
2024-05-09T05:45:52.918Z,14.44
2024-05-09T05:48:25.088Z,14.44
2024-05-09T05:50:53.326Z,14.54
2024-05-09T05:53:21.667Z,14.56
2024-05-09T05:55:50.070Z,14.63
2024-05-09T05:58:20.052Z,14.60
2024-05-09T06:00:48.443Z,14.68
2024-05-09T06:03:16.964Z,14.72
2024-05-09T06:05:48.149Z,14.72
2024-05-09T06:08:16.516Z,14.72
2024-05-09T06:10:45.146Z,14.78
2024-05-09T06:13:14.376Z,14.93
2024-05-09T06:15:43.889Z,15.00
2024-05-09T06:18:14.870Z,15.06
2024-05-09T06:20:44.157Z,15.15
2024-05-09T06:23:14.355Z,15.31
2024-05-09T06:25:43.791Z,15.35
2024-05-09T06:28:12.013Z,15.33
2024-05-09T06:30:42.260Z,15.34
2024-05-09T06:33:14.163Z,15.46
2024-05-09T06:35:46.158Z,15.54
2024-05-09T06:38:14.646Z,15.67
2024-05-09T06:40:44.136Z,15.87
2024-05-09T06:43:16.953Z,15.95
2024-05-09T06:45:49.209Z,16.02
2024-05-09T06:48:22.185Z,16.09
2024-05-09T06:50:51.135Z,16.09
2024-05-09T06:53:25.986Z,16.14
2024-05-09T06:55:54.425Z,16.30
2024-05-09T06:58:22.525Z,16.40
2024-05-09T07:00:50.793Z,16.55
2024-05-09T07:03:19.806Z,16.60
2024-05-09T07:05:49.440Z,16.54
2024-05-09T07:08:18.387Z,16.53
2024-05-09T07:10:47.929Z,16.50
2024-05-09T07:13:16.692Z,16.69
2024-05-09T07:15:45.070Z,16.48
2024-05-09T07:18:17.392Z,16.51
2024-05-09T07:20:48.999Z,16.54
2024-05-09T07:23:18.342Z,16.54
2024-05-09T07:25:47.144Z,16.76
2024-05-09T07:28:18.116Z,16.73
2024-05-09T07:30:46.871Z,16.72
2024-05-09T07:33:22.077Z,16.91
2024-05-09T07:35:52.938Z,17.13
2024-05-09T07:38:24.618Z,17.36
2024-05-09T07:40:53.323Z,17.44
2024-05-09T07:43:21.637Z,17.50
2024-05-09T07:45:54.089Z,17.39
2024-05-09T07:52:39.124Z,17.48
2024-05-09T07:53:49.078Z,17.72
2024-05-09T07:56:22.629Z,17.87
2024-05-09T07:58:55.685Z,17.88
2024-05-09T08:01:26.524Z,17.89
2024-05-09T08:03:55.898Z,17.94
2024-05-09T08:06:24.795Z,17.79
2024-05-09T08:08:52.987Z,17.72
2024-05-09T08:11:21.205Z,17.82
2024-05-09T08:13:49.510Z,17.78
2024-05-09T08:16:17.868Z,17.93
2024-05-09T08:18:46.435Z,18.06
2024-05-09T08:21:14.806Z,18.16
2024-05-09T08:23:43.381Z,18.12
2024-05-09T08:26:12.091Z,18.11
2024-05-09T08:28:40.433Z,18.18
2024-05-09T08:31:10.120Z,18.19
2024-05-09T08:33:48.104Z,18.15
2024-05-09T08:36:17.125Z,18.22
2024-05-09T08:38:45.634Z,18.27
2024-05-09T08:41:15.544Z,18.21
2024-05-09T08:43:44.549Z,18.18
2024-05-09T08:46:14.334Z,18.14
2024-05-09T08:48:45.678Z,18.27
2024-05-09T08:51:14.303Z,18.35
2024-05-09T08:53:42.606Z,18.46
2024-05-09T08:56:11.663Z,18.51
2024-05-09T08:58:41.325Z,18.58
2024-05-09T09:01:12.180Z,18.73
2024-05-09T09:03:46.314Z,18.74
2024-05-09T09:06:18.781Z,18.59
2024-05-09T09:08:47.645Z,18.70
2024-05-09T09:11:19.002Z,18.81
2024-05-09T09:13:47.702Z,18.97
2024-05-09T09:16:17.104Z,19.20
2024-05-09T09:18:49.818Z,19.20
2024-05-09T09:21:18.149Z,19.35
2024-05-09T09:23:46.419Z,19.38
2024-05-09T09:26:18.247Z,19.45
2024-05-09T09:28:48.734Z,19.51
2024-05-09T09:31:20.417Z,19.59
2024-05-09T09:33:49.031Z,19.64
2024-05-09T09:36:18.559Z,19.56
2024-05-09T09:38:48.383Z,19.58
2024-05-09T09:41:19.849Z,19.41
2024-05-09T09:43:48.736Z,19.40
2024-05-09T09:46:19.388Z,19.52
2024-05-09T09:48:49.282Z,19.30
2024-05-09T09:51:19.594Z,19.21
2024-05-09T09:53:50.527Z,19.35
2024-05-09T09:56:21.207Z,19.57
2024-05-09T09:58:51.034Z,19.79
2024-05-09T10:01:19.475Z,19.77
2024-05-09T10:03:48.105Z,19.69
2024-05-09T10:06:18.627Z,19.92
2024-05-09T10:08:48.502Z,20.08
2024-05-09T10:11:22.698Z,20.13
2024-05-09T10:13:53.684Z,20.21
2024-05-09T10:16:23.168Z,20.37
2024-05-09T10:18:51.711Z,20.34
2024-05-09T10:21:20.998Z,20.43
2024-05-09T10:24:06.080Z,20.52
2024-05-09T10:26:36.838Z,20.70
2024-05-09T10:29:15.490Z,20.90
2024-05-09T10:31:48.035Z,20.98
2024-05-09T10:34:24.090Z,20.95
2024-05-09T10:36:56.276Z,20.99
2024-05-09T10:39:25.992Z,21.09
2024-05-09T10:41:56.806Z,21.18
2024-05-09T10:44:25.701Z,21.17
2024-05-09T10:46:54.841Z,21.08
2024-05-09T10:49:23.307Z,21.22
2024-05-09T10:51:52.180Z,21.22
2024-05-09T10:54:20.320Z,20.75
2024-05-09T10:56:57.342Z,20.54
2024-05-09T10:59:32.168Z,20.68
2024-05-09T11:02:10.035Z,20.85
2024-05-09T11:04:40.412Z,20.96
2024-05-09T11:07:17.192Z,20.85
2024-05-09T11:09:45.917Z,20.95
2024-05-09T11:12:14.379Z,20.99
2024-05-09T11:14:53.696Z,21.06
2024-05-09T11:17:22.114Z,21.23
2024-05-09T11:19:50.852Z,21.32
2024-05-09T11:22:21.482Z,21.32
2024-05-09T11:24:49.947Z,21.42
2024-05-09T11:27:23.499Z,21.40
2024-05-09T11:29:51.885Z,21.46
2024-05-09T11:32:29.884Z,21.62
2024-05-09T11:34:58.311Z,21.12
2024-05-09T11:37:26.399Z,20.94
2024-05-09T11:39:54.911Z,20.98
2024-05-09T11:42:23.240Z,21.26
2024-05-09T11:44:51.751Z,21.58
2024-05-09T11:47:21.658Z,21.64
2024-05-09T11:49:50.142Z,21.66
2024-05-09T11:52:18.827Z,21.76
2024-05-09T11:54:47.100Z,21.69
2024-05-09T11:57:15.762Z,21.54
2024-05-09T11:59:44.465Z,21.19
2024-05-09T12:02:12.760Z,21.04
2024-05-09T12:04:41.386Z,21.19
2024-05-09T12:07:12.762Z,21.42
2024-05-09T12:09:41.499Z,21.88
2024-05-09T12:12:09.887Z,22.31
2024-05-09T12:14:38.156Z,22.30
2024-05-09T12:17:06.863Z,22.07
2024-05-09T12:19:35.252Z,22.44
2024-05-09T12:22:03.559Z,22.66
2024-05-09T12:24:31.854Z,22.61
2024-05-09T12:27:00.061Z,22.45
2024-05-09T12:29:28.504Z,22.41
2024-05-09T12:31:57.617Z,22.50
2024-05-09T12:34:25.759Z,22.68
2024-05-09T12:36:54.094Z,23.13
2024-05-09T12:39:22.253Z,23.49
2024-05-09T12:41:52.656Z,23.69
2024-05-09T12:44:20.870Z,23.82
2024-05-09T12:46:49.086Z,24.08
2024-05-09T12:49:19.154Z,24.26
2024-05-09T12:51:48.597Z,24.54
2024-05-09T12:54:17.383Z,24.48
2024-05-09T12:56:45.502Z,24.13
2024-05-09T12:59:13.622Z,24.23
2024-05-09T13:01:41.941Z,24.37
2024-05-09T13:04:10.456Z,24.40
2024-05-09T13:06:38.763Z,23.82
2024-05-09T13:09:07.036Z,23.74
2024-05-09T13:11:35.338Z,23.70
2024-05-09T13:14:03.622Z,23.89
2024-05-09T13:16:32.074Z,24.41
2024-05-09T13:19:00.297Z,24.96
2024-05-09T13:21:28.594Z,25.63
2024-05-09T13:23:59.280Z,25.85
2024-05-09T13:26:28.372Z,25.91
2024-05-09T13:28:56.420Z,25.90
2024-05-09T13:31:24.791Z,26.08
2024-05-09T13:33:53.063Z,26.02
2024-05-09T13:36:21.297Z,26.45
2024-05-09T13:38:49.747Z,26.94
2024-05-09T13:41:18.054Z,27.24
2024-05-09T13:43:46.200Z,27.41
2024-05-09T13:46:14.576Z,27.61
2024-05-09T13:48:43.195Z,27.34
2024-05-09T13:51:11.324Z,26.99
2024-05-09T13:53:39.642Z,27.04
2024-05-09T13:56:08.524Z,27.46
2024-05-09T13:58:36.889Z,27.58
2024-05-09T14:01:05.552Z,27.51
2024-05-09T14:03:34.340Z,27.70
2024-05-09T14:06:02.729Z,27.75
2024-05-09T14:08:30.972Z,27.33
2024-05-09T14:10:59.276Z,26.83
2024-05-09T14:13:27.559Z,26.56
2024-05-09T14:15:55.901Z,26.46
2024-05-09T14:18:24.491Z,26.53
2024-05-09T14:20:52.614Z,26.09
2024-05-09T14:23:20.989Z,25.54
2024-05-09T14:25:52.366Z,25.28
2024-05-09T14:28:22.939Z,25.48
2024-05-09T14:30:51.484Z,25.70
2024-05-09T14:33:25.408Z,25.94
2024-05-09T14:35:54.131Z,26.20
2024-05-09T14:38:27.382Z,26.42
2024-05-09T14:40:55.946Z,26.45
2024-05-09T14:43:24.510Z,26.50
2024-05-09T14:45:53.502Z,26.45
2024-05-09T14:48:23.188Z,26.47
2024-05-09T14:50:51.610Z,26.31
2024-05-09T14:53:20.015Z,26.46
2024-05-09T14:55:49.510Z,26.23
2024-05-09T14:58:19.436Z,26.08
2024-05-09T15:00:50.346Z,25.89
2024-05-09T15:03:22.739Z,25.49
2024-05-09T15:05:52.322Z,25.23
2024-05-09T15:08:20.900Z,25.01
2024-05-09T15:11:04.580Z,24.79
2024-05-09T15:13:33.032Z,24.51
2024-05-09T15:16:01.649Z,24.32
2024-05-09T15:18:30.079Z,24.21
2024-05-09T15:20:58.543Z,23.97
2024-05-09T15:23:28.829Z,23.72
2024-05-09T15:25:56.927Z,23.36
2024-05-09T15:28:25.359Z,23.28
2024-05-09T15:30:53.621Z,22.98
2024-05-09T15:33:22.013Z,22.73
2024-05-09T15:35:51.491Z,22.56
2024-05-09T15:38:19.945Z,22.68
2024-05-09T15:40:48.282Z,22.51
2024-05-09T15:43:16.472Z,22.48
2024-05-09T15:45:45.150Z,22.55
2024-05-09T15:48:14.296Z,22.64
2024-05-09T15:50:43.085Z,22.64
2024-05-09T15:53:13.388Z,22.63
2024-05-09T15:55:43.179Z,22.69
2024-05-09T15:58:12.238Z,22.87
2024-05-09T16:00:44.202Z,23.19
2024-05-09T16:03:14.863Z,23.50
2024-05-09T16:05:45.527Z,23.44
2024-05-09T16:08:15.850Z,22.99
2024-05-09T16:10:47.913Z,22.63
2024-05-09T16:13:17.554Z,22.54
2024-05-09T16:15:46.423Z,22.40
2024-05-09T16:18:14.826Z,22.35
2024-05-09T16:20:44.941Z,22.20
2024-05-09T16:23:15.020Z,22.08
2024-05-09T16:25:46.027Z,21.91
2024-05-09T16:28:14.278Z,21.76
2024-05-09T16:30:42.736Z,21.54
2024-05-09T16:33:11.971Z,21.17
2024-05-09T16:35:40.875Z,20.90
2024-05-09T16:38:09.015Z,20.81
2024-05-09T16:40:40.439Z,20.69
2024-05-09T16:43:12.016Z,20.65
2024-05-09T16:45:44.109Z,20.64
2024-05-09T16:48:13.199Z,20.61
2024-05-09T16:50:41.719Z,20.53
2024-05-09T16:53:09.824Z,20.45
2024-05-09T16:55:38.628Z,20.36
2024-05-09T16:58:08.441Z,20.24
2024-05-09T17:00:41.946Z,20.13
2024-05-09T17:03:15.083Z,20.03
2024-05-09T17:05:46.864Z,20.00
2024-05-09T17:08:19.893Z,19.96
2024-05-09T17:10:49.532Z,19.81
2024-05-09T17:13:19.198Z,19.72
2024-05-09T17:15:49.235Z,19.65
2024-05-09T17:18:18.015Z,19.52
2024-05-09T17:20:46.315Z,19.34
2024-05-09T17:23:14.815Z,19.17
2024-05-09T17:25:43.509Z,19.05
2024-05-09T17:28:12.473Z,18.97
2024-05-09T17:30:42.571Z,18.93
2024-05-09T17:33:12.749Z,18.79
2024-05-09T17:35:41.885Z,18.73
2024-05-09T17:38:10.106Z,18.70
2024-05-09T17:40:39.209Z,18.70
2024-05-09T17:43:10.419Z,18.65
2024-05-09T17:45:40.973Z,18.67
2024-05-09T17:48:11.660Z,18.70
2024-05-09T17:50:41.860Z,18.68
2024-05-09T17:53:11.061Z,18.60
2024-05-09T17:55:40.539Z,18.58
2024-05-09T17:58:09.864Z,18.56
2024-05-09T18:00:41.216Z,18.51
2024-05-09T18:03:11.951Z,18.35
2024-05-09T18:05:43.957Z,18.34
2024-05-09T18:08:13.536Z,18.18
2024-05-09T18:10:42.771Z,18.10
2024-05-09T18:13:12.274Z,18.05
2024-05-09T18:15:41.784Z,18.02
2024-05-09T18:18:11.324Z,18.03
2024-05-09T18:20:44.199Z,18.00
2024-05-09T18:23:18.532Z,17.98
2024-05-09T18:25:48.105Z,17.97
2024-05-09T18:28:17.337Z,17.95
2024-05-09T18:30:46.491Z,17.88
2024-05-09T18:33:15.671Z,17.87
2024-05-09T18:35:45.419Z,17.87
2024-05-09T18:38:13.934Z,17.85
2024-05-09T18:40:44.773Z,17.82
2024-05-09T18:43:15.244Z,17.80
2024-05-09T18:45:43.618Z,17.76
2024-05-09T18:48:12.250Z,17.68
2024-05-09T18:50:41.552Z,17.61
2024-05-09T18:53:12.348Z,17.58
2024-05-09T18:55:42.384Z,17.45
2024-05-09T18:58:11.201Z,17.33
2024-05-09T19:00:41.763Z,17.24
2024-05-09T19:03:14.518Z,17.21
2024-05-09T19:05:45.264Z,17.20
2024-05-09T19:08:15.447Z,17.22
2024-05-09T19:10:45.617Z,17.21
2024-05-09T19:13:14.893Z,17.24
2024-05-09T19:15:44.135Z,17.21
2024-05-09T19:18:14.108Z,17.25
2024-05-09T19:20:44.160Z,17.24
2024-05-09T19:23:12.709Z,17.23
2024-05-09T19:25:40.902Z,17.10
2024-05-09T19:28:11.215Z,17.09
2024-05-09T19:30:42.034Z,17.02
2024-05-09T19:33:13.192Z,16.92
2024-05-09T19:35:43.282Z,16.91
2024-05-09T19:38:12.313Z,16.90
2024-05-09T19:40:41.440Z,16.86
2024-05-09T19:43:10.320Z,16.82
2024-05-09T19:45:38.584Z,16.76
2024-05-09T19:48:07.555Z,16.74
2024-05-09T19:50:41.551Z,16.50
2024-05-09T19:53:14.634Z,16.13
2024-05-09T19:55:43.613Z,16.03
2024-05-09T19:58:12.851Z,15.95
2024-05-09T20:00:43.524Z,15.69
2024-05-09T20:03:14.989Z,15.79
2024-05-09T20:05:46.707Z,15.86
2024-05-09T20:08:15.422Z,15.95
2024-05-09T20:10:43.685Z,16.03
2024-05-09T20:13:11.996Z,16.10
2024-05-09T20:15:40.283Z,16.12
2024-05-09T20:18:08.548Z,16.12
2024-05-09T20:20:40.522Z,16.09
2024-05-09T20:23:12.362Z,15.94
2024-05-09T20:25:42.069Z,15.93
2024-05-09T20:28:11.083Z,15.90
2024-05-09T20:30:39.489Z,15.86
2024-05-09T20:33:09.024Z,15.78
2024-05-09T20:35:38.372Z,15.74
2024-05-09T20:38:06.925Z,15.68
2024-05-09T20:40:38.120Z,15.76
2024-05-09T20:43:09.746Z,15.71
2024-05-09T20:45:39.532Z,15.65
2024-05-09T20:48:09.751Z,15.63
2024-05-09T20:50:41.227Z,15.60
2024-05-09T20:53:13.806Z,15.46
2024-05-09T20:55:44.627Z,15.40
2024-05-09T20:58:14.043Z,15.37
2024-05-09T21:00:45.309Z,15.38
2024-05-09T21:03:16.852Z,15.34
2024-05-09T21:05:47.957Z,15.35
2024-05-09T21:08:17.021Z,15.17
2024-05-09T21:10:45.324Z,15.21
2024-05-09T21:13:13.744Z,15.17
2024-05-09T21:15:41.925Z,15.22
2024-05-09T21:18:10.302Z,15.11
2024-05-09T21:20:38.402Z,15.18
2024-05-09T21:23:06.466Z,15.18
2024-05-09T21:25:34.623Z,15.19
2024-05-09T21:28:03.027Z,15.01
2024-05-09T21:30:38.883Z,14.76
2024-05-09T21:33:13.529Z,14.79
2024-05-09T21:35:44.193Z,14.82
2024-05-09T21:38:14.550Z,14.93
2024-05-09T21:40:44.134Z,14.97
2024-05-09T21:43:12.699Z,14.99
2024-05-09T21:45:41.271Z,14.99
2024-05-09T22:04:37.556Z,14.65
2024-05-09T22:07:06.767Z,14.57
2024-05-09T22:09:35.796Z,14.58
2024-05-09T22:12:04.709Z,14.58
2024-05-09T22:14:32.912Z,14.53
2024-05-09T22:17:00.999Z,14.53
2024-05-09T22:19:29.820Z,14.50
2024-05-09T22:21:58.102Z,14.40
2024-05-09T22:24:26.395Z,14.32
2024-05-09T22:26:55.200Z,14.30
2024-05-09T22:29:23.646Z,14.29
2024-05-09T22:31:51.968Z,14.34
2024-05-09T22:34:20.145Z,14.34
2024-05-09T22:36:48.281Z,14.42
2024-05-09T22:39:17.644Z,14.34
2024-05-09T22:41:45.817Z,14.35
2024-05-09T22:44:14.106Z,14.31
2024-05-09T22:46:42.275Z,14.27
2024-05-09T22:49:10.576Z,14.27
2024-05-09T22:51:38.740Z,14.23
2024-05-09T22:54:07.649Z,14.27
2024-05-09T22:56:35.843Z,14.22
2024-05-09T22:59:04.202Z,14.10
2024-05-09T23:01:32.523Z,14.08
2024-05-09T23:04:02.509Z,13.99
2024-05-09T23:06:31.863Z,13.88
2024-05-09T23:09:00.044Z,13.96
2024-05-09T23:11:28.337Z,13.87
2024-05-09T23:13:56.511Z,13.91
2024-05-09T23:16:24.968Z,13.91
2024-05-09T23:18:53.276Z,13.92
2024-05-09T23:21:21.598Z,13.93
2024-05-09T23:23:49.847Z,13.91
2024-05-09T23:26:18.035Z,13.93
2024-05-09T23:28:48.250Z,13.86
2024-05-09T23:31:16.376Z,13.86
2024-05-09T23:33:47.435Z,13.86
2024-05-09T23:36:15.809Z,13.86
2024-05-09T23:38:44.059Z,13.75
2024-05-09T23:41:12.244Z,13.55
2024-05-09T23:43:40.639Z,13.41
2024-05-09T23:46:09.218Z,13.29
2024-05-09T23:48:37.773Z,13.15
2024-05-09T23:51:06.149Z,13.03
2024-05-09T23:53:34.314Z,13.06
2024-05-09T23:56:02.474Z,12.99
2024-05-09T23:58:31.431Z,12.92
